sensor_id;sensor_type;location;lat;lon;timestamp;P1;durP1;ratioP1;P2;durP2;ratioP2
1831;SDS011;1680;48.106;11.708;2022-12-18T00:01:59;39.17;;;24.95;;
1831;SDS011;1680;48.106;11.708;2022-12-18T00:04:27;42.63;;;25.33;;
1831;SDS011;1680;48.106;11.708;2022-12-18T00:06:54;45.25;;;25.88;;
1831;SDS011;1680;48.106;11.708;2022-12-18T00:09:21;44.10;;;27.60;;
1831;SDS011;1680;48.106;11.708;2022-12-18T00:11:49;42.28;;;25.80;;
1831;SDS011;1680;48.106;11.708;2022-12-18T00:14:16;49.45;;;29.45;;
1831;SDS011;1680;48.106;11.708;2022-12-18T00:16:45;39.80;;;23.95;;
1831;SDS011;1680;48.106;11.708;2022-12-18T00:19:18;46.78;;;27.45;;
1831;SDS011;1680;48.106;11.708;2022-12-18T00:21:46;48.25;;;27.13;;
1831;SDS011;1680;48.106;11.708;2022-12-18T00:24:13;47.67;;;25.50;;
1831;SDS011;1680;48.106;11.708;2022-12-18T00:26:40;51.88;;;26.80;;
1831;SDS011;1680;48.106;11.708;2022-12-18T00:29:09;37.70;;;22.50;;
1831;SDS011;1680;48.106;11.708;2022-12-18T00:31:39;46.03;;;24.10;;
1831;SDS011;1680;48.106;11.708;2022-12-18T00:34:08;43.25;;;22.75;;
1831;SDS011;1680;48.106;11.708;2022-12-18T00:36:38;42.22;;;23.42;;
1831;SDS011;1680;48.106;11.708;2022-12-18T00:39:06;42.47;;;24.02;;
1831;SDS011;1680;48.106;11.708;2022-12-18T00:41:34;35.03;;;21.33;;
1831;SDS011;1680;48.106;11.708;2022-12-18T00:44:19;34.40;;;21.23;;
1831;SDS011;1680;48.106;11.708;2022-12-18T00:46:47;32.28;;;20.80;;
1831;SDS011;1680;48.106;11.708;2022-12-18T00:49:15;33.60;;;20.80;;
1831;SDS011;1680;48.106;11.708;2022-12-18T00:51:44;36.78;;;20.48;;
1831;SDS011;1680;48.106;11.708;2022-12-18T00:54:12;35.83;;;22.20;;
1831;SDS011;1680;48.106;11.708;2022-12-18T00:56:40;38.38;;;21.85;;
1831;SDS011;1680;48.106;11.708;2022-12-18T00:59:08;37.15;;;22.55;;
1831;SDS011;1680;48.106;11.708;2022-12-18T01:01:35;37.55;;;22.15;;
1831;SDS011;1680;48.106;11.708;2022-12-18T01:04:02;33.45;;;21.55;;
1831;SDS011;1680;48.106;11.708;2022-12-18T01:06:30;37.97;;;22.63;;
1831;SDS011;1680;48.106;11.708;2022-12-18T01:08:58;36.65;;;22.98;;
1831;SDS011;1680;48.106;11.708;2022-12-18T01:11:25;38.78;;;22.55;;
1831;SDS011;1680;48.106;11.708;2022-12-18T01:13:53;37.58;;;23.77;;
1831;SDS011;1680;48.106;11.708;2022-12-18T01:16:21;40.38;;;24.65;;
1831;SDS011;1680;48.106;11.708;2022-12-18T01:18:50;36.38;;;22.50;;
1831;SDS011;1680;48.106;11.708;2022-12-18T01:21:19;36.38;;;22.65;;
1831;SDS011;1680;48.106;11.708;2022-12-18T01:23:50;38.50;;;22.42;;
1831;SDS011;1680;48.106;11.708;2022-12-18T01:26:20;36.58;;;22.63;;
1831;SDS011;1680;48.106;11.708;2022-12-18T01:28:47;38.47;;;22.30;;
1831;SDS011;1680;48.106;11.708;2022-12-18T01:31:16;37.80;;;22.70;;
1831;SDS011;1680;48.106;11.708;2022-12-18T01:33:45;38.72;;;23.25;;
1831;SDS011;1680;48.106;11.708;2022-12-18T01:36:16;38.92;;;23.27;;
1831;SDS011;1680;48.106;11.708;2022-12-18T01:38:44;37.03;;;23.00;;
1831;SDS011;1680;48.106;11.708;2022-12-18T01:41:12;36.03;;;22.17;;
1831;SDS011;1680;48.106;11.708;2022-12-18T01:43:42;40.17;;;23.73;;
1831;SDS011;1680;48.106;11.708;2022-12-18T01:46:11;35.85;;;22.20;;
1831;SDS011;1680;48.106;11.708;2022-12-18T01:48:39;38.47;;;22.77;;
1831;SDS011;1680;48.106;11.708;2022-12-18T01:51:07;42.03;;;24.13;;
1831;SDS011;1680;48.106;11.708;2022-12-18T01:53:37;37.08;;;22.08;;
1831;SDS011;1680;48.106;11.708;2022-12-18T01:56:07;41.20;;;24.67;;
1831;SDS011;1680;48.106;11.708;2022-12-18T01:58:37;37.08;;;22.35;;
1831;SDS011;1680;48.106;11.708;2022-12-18T02:01:12;37.90;;;22.73;;
1831;SDS011;1680;48.106;11.708;2022-12-18T02:03:40;39.22;;;23.17;;
1831;SDS011;1680;48.106;11.708;2022-12-18T02:06:10;35.97;;;22.45;;
1831;SDS011;1680;48.106;11.708;2022-12-18T02:08:41;39.15;;;23.98;;
1831;SDS011;1680;48.106;11.708;2022-12-18T02:11:37;40.85;;;24.90;;
1831;SDS011;1680;48.106;11.708;2022-12-18T02:14:15;44.08;;;25.13;;
1831;SDS011;1680;48.106;11.708;2022-12-18T02:16:52;39.22;;;24.48;;
1831;SDS011;1680;48.106;11.708;2022-12-18T02:22:27;39.63;;;24.13;;
1831;SDS011;1680;48.106;11.708;2022-12-18T02:25:06;38.40;;;23.88;;
1831;SDS011;1680;48.106;11.708;2022-12-18T02:27:46;40.83;;;24.40;;
1831;SDS011;1680;48.106;11.708;2022-12-18T02:30:15;39.75;;;24.70;;
1831;SDS011;1680;48.106;11.708;2022-12-18T02:32:45;40.08;;;23.98;;
1831;SDS011;1680;48.106;11.708;2022-12-18T02:35:17;40.33;;;23.92;;
1831;SDS011;1680;48.106;11.708;2022-12-18T02:37:49;39.83;;;24.63;;
1831;SDS011;1680;48.106;11.708;2022-12-18T02:40:17;38.22;;;23.60;;
1831;SDS011;1680;48.106;11.708;2022-12-18T02:42:47;42.83;;;24.80;;
1831;SDS011;1680;48.106;11.708;2022-12-18T02:45:14;42.70;;;25.38;;
1831;SDS011;1680;48.106;11.708;2022-12-18T02:47:42;39.38;;;24.25;;
1831;SDS011;1680;48.106;11.708;2022-12-18T02:50:13;40.55;;;24.50;;
1831;SDS011;1680;48.106;11.708;2022-12-18T02:52:51;42.42;;;26.23;;
1831;SDS011;1680;48.106;11.708;2022-12-18T02:55:29;43.75;;;24.80;;
1831;SDS011;1680;48.106;11.708;2022-12-18T02:58:10;40.70;;;24.30;;
1831;SDS011;1680;48.106;11.708;2022-12-18T03:00:43;37.40;;;23.98;;
1831;SDS011;1680;48.106;11.708;2022-12-18T03:03:18;40.03;;;25.13;;
1831;SDS011;1680;48.106;11.708;2022-12-18T03:05:51;42.45;;;25.48;;
1831;SDS011;1680;48.106;11.708;2022-12-18T03:08:23;38.60;;;23.02;;
1831;SDS011;1680;48.106;11.708;2022-12-18T03:10:55;37.05;;;22.95;;
1831;SDS011;1680;48.106;11.708;2022-12-18T03:13:30;45.83;;;25.42;;
1831;SDS011;1680;48.106;11.708;2022-12-18T03:16:00;42.38;;;24.90;;
1831;SDS011;1680;48.106;11.708;2022-12-18T03:18:30;41.03;;;24.55;;
1831;SDS011;1680;48.106;11.708;2022-12-18T03:21:02;36.65;;;23.52;;
1831;SDS011;1680;48.106;11.708;2022-12-18T03:23:34;40.13;;;24.65;;
1831;SDS011;1680;48.106;11.708;2022-12-18T03:26:05;38.03;;;23.17;;
1831;SDS011;1680;48.106;11.708;2022-12-18T03:28:38;39.13;;;24.27;;
1831;SDS011;1680;48.106;11.708;2022-12-18T03:31:09;39.72;;;23.27;;
1831;SDS011;1680;48.106;11.708;2022-12-18T03:33:39;36.50;;;24.15;;
1831;SDS011;1680;48.106;11.708;2022-12-18T03:36:12;40.65;;;23.65;;
1831;SDS011;1680;48.106;11.708;2022-12-18T03:38:39;40.17;;;22.90;;
1831;SDS011;1680;48.106;11.708;2022-12-18T03:41:09;39.05;;;23.80;;
1831;SDS011;1680;48.106;11.708;2022-12-18T03:43:47;38.53;;;23.05;;
1831;SDS011;1680;48.106;11.708;2022-12-18T03:46:20;40.28;;;23.75;;
1831;SDS011;1680;48.106;11.708;2022-12-18T03:48:55;36.70;;;22.27;;
1831;SDS011;1680;48.106;11.708;2022-12-18T03:51:29;37.97;;;22.45;;
1831;SDS011;1680;48.106;11.708;2022-12-18T03:54:04;37.78;;;21.83;;
1831;SDS011;1680;48.106;11.708;2022-12-18T03:56:35;37.40;;;23.05;;
1831;SDS011;1680;48.106;11.708;2022-12-18T03:59:06;36.45;;;23.40;;
1831;SDS011;1680;48.106;11.708;2022-12-18T04:01:40;36.50;;;23.05;;
1831;SDS011;1680;48.106;11.708;2022-12-18T04:04:12;37.45;;;23.15;;
1831;SDS011;1680;48.106;11.708;2022-12-18T04:06:42;37.38;;;22.42;;
1831;SDS011;1680;48.106;11.708;2022-12-18T04:09:11;37.70;;;22.80;;
1831;SDS011;1680;48.106;11.708;2022-12-18T04:11:39;39.63;;;22.90;;
1831;SDS011;1680;48.106;11.708;2022-12-18T04:14:08;34.42;;;21.38;;
1831;SDS011;1680;48.106;11.708;2022-12-18T04:16:36;35.55;;;21.55;;
1831;SDS011;1680;48.106;11.708;2022-12-18T04:19:03;33.42;;;21.00;;
1831;SDS011;1680;48.106;11.708;2022-12-18T04:21:30;35.35;;;21.10;;
1831;SDS011;1680;48.106;11.708;2022-12-18T04:23:57;37.13;;;21.67;;
1831;SDS011;1680;48.106;11.708;2022-12-18T04:26:24;35.63;;;21.60;;
1831;SDS011;1680;48.106;11.708;2022-12-18T04:28:51;36.25;;;23.00;;
1831;SDS011;1680;48.106;11.708;2022-12-18T04:31:20;37.08;;;20.95;;
1831;SDS011;1680;48.106;11.708;2022-12-18T04:33:47;33.70;;;22.30;;
1831;SDS011;1680;48.106;11.708;2022-12-18T04:36:14;35.40;;;21.52;;
1831;SDS011;1680;48.106;11.708;2022-12-18T04:38:41;34.78;;;21.73;;
1831;SDS011;1680;48.106;11.708;2022-12-18T04:41:08;35.88;;;22.05;;
1831;SDS011;1680;48.106;11.708;2022-12-18T04:43:36;35.17;;;21.33;;
1831;SDS011;1680;48.106;11.708;2022-12-18T04:46:04;35.53;;;22.20;;
1831;SDS011;1680;48.106;11.708;2022-12-18T04:48:33;37.97;;;22.10;;
1831;SDS011;1680;48.106;11.708;2022-12-18T04:51:01;38.67;;;22.48;;
1831;SDS011;1680;48.106;11.708;2022-12-18T04:53:28;34.35;;;20.83;;
1831;SDS011;1680;48.106;11.708;2022-12-18T04:56:02;34.13;;;21.48;;
1831;SDS011;1680;48.106;11.708;2022-12-18T04:58:31;30.08;;;20.73;;
1831;SDS011;1680;48.106;11.708;2022-12-18T05:00:58;36.03;;;22.33;;
1831;SDS011;1680;48.106;11.708;2022-12-18T05:03:27;36.30;;;23.35;;
1831;SDS011;1680;48.106;11.708;2022-12-18T05:05:55;33.47;;;21.27;;
1831;SDS011;1680;48.106;11.708;2022-12-18T05:08:23;36.65;;;22.25;;
1831;SDS011;1680;48.106;11.708;2022-12-18T05:10:57;37.63;;;22.42;;
1831;SDS011;1680;48.106;11.708;2022-12-18T05:13:25;33.97;;;20.52;;
1831;SDS011;1680;48.106;11.708;2022-12-18T05:15:52;35.90;;;22.00;;
1831;SDS011;1680;48.106;11.708;2022-12-18T05:18:20;33.17;;;21.85;;
1831;SDS011;1680;48.106;11.708;2022-12-18T05:20:47;35.40;;;21.08;;
1831;SDS011;1680;48.106;11.708;2022-12-18T05:23:16;37.33;;;22.67;;
1831;SDS011;1680;48.106;11.708;2022-12-18T05:25:46;32.70;;;19.25;;
1831;SDS011;1680;48.106;11.708;2022-12-18T05:28:14;34.80;;;21.25;;
1831;SDS011;1680;48.106;11.708;2022-12-18T05:30:42;35.53;;;21.33;;
1831;SDS011;1680;48.106;11.708;2022-12-18T05:33:11;35.53;;;21.25;;
1831;SDS011;1680;48.106;11.708;2022-12-18T05:35:38;32.63;;;19.85;;
1831;SDS011;1680;48.106;11.708;2022-12-18T05:38:05;32.30;;;20.33;;
1831;SDS011;1680;48.106;11.708;2022-12-18T05:40:34;33.15;;;20.42;;
1831;SDS011;1680;48.106;11.708;2022-12-18T05:43:01;29.08;;;19.55;;
1831;SDS011;1680;48.106;11.708;2022-12-18T05:45:29;34.63;;;21.15;;
1831;SDS011;1680;48.106;11.708;2022-12-18T05:47:56;30.20;;;20.35;;
1831;SDS011;1680;48.106;11.708;2022-12-18T05:50:24;29.30;;;18.42;;
1831;SDS011;1680;48.106;11.708;2022-12-18T05:52:51;30.10;;;18.98;;
1831;SDS011;1680;48.106;11.708;2022-12-18T05:55:18;31.73;;;19.30;;
1831;SDS011;1680;48.106;11.708;2022-12-18T05:57:46;33.53;;;19.85;;
1831;SDS011;1680;48.106;11.708;2022-12-18T06:00:14;34.20;;;19.92;;
1831;SDS011;1680;48.106;11.708;2022-12-18T06:02:51;31.50;;;18.70;;
1831;SDS011;1680;48.106;11.708;2022-12-18T06:05:18;31.83;;;19.85;;
1831;SDS011;1680;48.106;11.708;2022-12-18T06:07:45;32.13;;;20.17;;
1831;SDS011;1680;48.106;11.708;2022-12-18T06:10:12;33.03;;;19.35;;
1831;SDS011;1680;48.106;11.708;2022-12-18T06:12:39;32.72;;;20.40;;
1831;SDS011;1680;48.106;11.708;2022-12-18T06:15:08;35.88;;;20.23;;
1831;SDS011;1680;48.106;11.708;2022-12-18T06:17:35;31.65;;;19.02;;
1831;SDS011;1680;48.106;11.708;2022-12-18T06:20:03;33.75;;;20.00;;
1831;SDS011;1680;48.106;11.708;2022-12-18T06:22:32;31.77;;;19.67;;
1831;SDS011;1680;48.106;11.708;2022-12-18T06:24:59;32.03;;;18.60;;
1831;SDS011;1680;48.106;11.708;2022-12-18T06:27:27;31.38;;;19.17;;
1831;SDS011;1680;48.106;11.708;2022-12-18T06:29:54;35.03;;;18.70;;
1831;SDS011;1680;48.106;11.708;2022-12-18T06:32:22;34.35;;;20.25;;
1831;SDS011;1680;48.106;11.708;2022-12-18T06:34:49;33.50;;;19.70;;
1831;SDS011;1680;48.106;11.708;2022-12-18T06:37:16;30.75;;;19.60;;
1831;SDS011;1680;48.106;11.708;2022-12-18T06:39:44;33.28;;;19.83;;
1831;SDS011;1680;48.106;11.708;2022-12-18T06:42:11;34.63;;;20.77;;
1831;SDS011;1680;48.106;11.708;2022-12-18T06:44:38;28.02;;;18.75;;
1831;SDS011;1680;48.106;11.708;2022-12-18T06:47:05;32.33;;;18.58;;
1831;SDS011;1680;48.106;11.708;2022-12-18T06:49:34;29.20;;;18.60;;
1831;SDS011;1680;48.106;11.708;2022-12-18T06:52:01;28.75;;;17.92;;
1831;SDS011;1680;48.106;11.708;2022-12-18T06:54:28;33.35;;;19.45;;
1831;SDS011;1680;48.106;11.708;2022-12-18T06:56:55;28.65;;;17.35;;
1831;SDS011;1680;48.106;11.708;2022-12-18T06:59:22;28.25;;;16.77;;
1831;SDS011;1680;48.106;11.708;2022-12-18T07:01:49;30.08;;;19.20;;
1831;SDS011;1680;48.106;11.708;2022-12-18T07:04:17;29.23;;;16.88;;
1831;SDS011;1680;48.106;11.708;2022-12-18T07:06:45;24.90;;;16.42;;
1831;SDS011;1680;48.106;11.708;2022-12-18T07:09:12;30.52;;;17.25;;
1831;SDS011;1680;48.106;11.708;2022-12-18T07:11:39;27.08;;;17.13;;
1831;SDS011;1680;48.106;11.708;2022-12-18T07:14:06;27.13;;;15.95;;
1831;SDS011;1680;48.106;11.708;2022-12-18T07:16:34;30.33;;;18.00;;
1831;SDS011;1680;48.106;11.708;2022-12-18T07:19:01;27.20;;;17.52;;
1831;SDS011;1680;48.106;11.708;2022-12-18T07:21:28;29.83;;;19.23;;
1831;SDS011;1680;48.106;11.708;2022-12-18T07:23:57;27.75;;;16.55;;
1831;SDS011;1680;48.106;11.708;2022-12-18T07:26:24;28.05;;;17.40;;
1831;SDS011;1680;48.106;11.708;2022-12-18T07:28:54;28.27;;;17.27;;
1831;SDS011;1680;48.106;11.708;2022-12-18T07:31:22;26.77;;;16.52;;
1831;SDS011;1680;48.106;11.708;2022-12-18T07:33:50;28.88;;;17.15;;
1831;SDS011;1680;48.106;11.708;2022-12-18T07:36:17;23.92;;;17.17;;
1831;SDS011;1680;48.106;11.708;2022-12-18T07:38:46;25.67;;;15.85;;
1831;SDS011;1680;48.106;11.708;2022-12-18T07:41:15;25.15;;;16.05;;
1831;SDS011;1680;48.106;11.708;2022-12-18T07:43:43;29.58;;;17.17;;
1831;SDS011;1680;48.106;11.708;2022-12-18T07:46:11;24.52;;;15.52;;
1831;SDS011;1680;48.106;11.708;2022-12-18T07:48:39;25.92;;;16.40;;
1831;SDS011;1680;48.106;11.708;2022-12-18T07:51:07;22.63;;;14.60;;
1831;SDS011;1680;48.106;11.708;2022-12-18T07:53:42;28.52;;;17.10;;
1831;SDS011;1680;48.106;11.708;2022-12-18T07:56:10;24.40;;;16.42;;
1831;SDS011;1680;48.106;11.708;2022-12-18T07:58:40;25.40;;;15.68;;
1831;SDS011;1680;48.106;11.708;2022-12-18T08:01:08;23.10;;;14.02;;
1831;SDS011;1680;48.106;11.708;2022-12-18T08:03:37;23.98;;;15.15;;
1831;SDS011;1680;48.106;11.708;2022-12-18T08:06:06;24.95;;;15.13;;
1831;SDS011;1680;48.106;11.708;2022-12-18T08:08:35;27.80;;;15.70;;
1831;SDS011;1680;48.106;11.708;2022-12-18T08:11:02;22.65;;;13.40;;
1831;SDS011;1680;48.106;11.708;2022-12-18T08:13:30;24.55;;;15.70;;
1831;SDS011;1680;48.106;11.708;2022-12-18T08:15:59;26.63;;;16.40;;
1831;SDS011;1680;48.106;11.708;2022-12-18T08:18:27;21.13;;;14.07;;
1831;SDS011;1680;48.106;11.708;2022-12-18T08:20:54;23.23;;;15.52;;
1831;SDS011;1680;48.106;11.708;2022-12-18T08:23:22;24.27;;;14.85;;
1831;SDS011;1680;48.106;11.708;2022-12-18T08:25:49;22.60;;;14.38;;
1831;SDS011;1680;48.106;11.708;2022-12-18T08:28:17;23.38;;;13.85;;
1831;SDS011;1680;48.106;11.708;2022-12-18T08:30:44;21.95;;;13.55;;
1831;SDS011;1680;48.106;11.708;2022-12-18T08:33:12;20.92;;;14.40;;
1831;SDS011;1680;48.106;11.708;2022-12-18T08:35:40;24.45;;;15.10;;
1831;SDS011;1680;48.106;11.708;2022-12-18T08:38:07;23.10;;;14.70;;
1831;SDS011;1680;48.106;11.708;2022-12-18T08:40:34;23.25;;;14.73;;
1831;SDS011;1680;48.106;11.708;2022-12-18T08:43:01;23.42;;;14.20;;
1831;SDS011;1680;48.106;11.708;2022-12-18T08:45:53;23.70;;;14.82;;
1831;SDS011;1680;48.106;11.708;2022-12-18T08:48:23;23.98;;;14.55;;
1831;SDS011;1680;48.106;11.708;2022-12-18T08:50:56;25.38;;;15.88;;
1831;SDS011;1680;48.106;11.708;2022-12-18T08:53:26;26.20;;;13.85;;
1831;SDS011;1680;48.106;11.708;2022-12-18T08:55:57;23.58;;;14.43;;
1831;SDS011;1680;48.106;11.708;2022-12-18T08:58:31;24.52;;;14.18;;
1831;SDS011;1680;48.106;11.708;2022-12-18T09:00:59;24.42;;;15.15;;
1831;SDS011;1680;48.106;11.708;2022-12-18T09:03:29;23.38;;;14.77;;
1831;SDS011;1680;48.106;11.708;2022-12-18T09:05:59;21.40;;;14.05;;
1831;SDS011;1680;48.106;11.708;2022-12-18T09:08:30;23.27;;;14.95;;
1831;SDS011;1680;48.106;11.708;2022-12-18T09:11:09;24.50;;;15.30;;
1831;SDS011;1680;48.106;11.708;2022-12-18T09:13:41;23.40;;;14.20;;
1831;SDS011;1680;48.106;11.708;2022-12-18T09:16:09;24.60;;;15.40;;
1831;SDS011;1680;48.106;11.708;2022-12-18T09:18:38;21.13;;;14.73;;
1831;SDS011;1680;48.106;11.708;2022-12-18T09:21:16;25.05;;;15.70;;
1831;SDS011;1680;48.106;11.708;2022-12-18T09:23:48;25.75;;;16.15;;
1831;SDS011;1680;48.106;11.708;2022-12-18T09:26:16;25.70;;;15.90;;
1831;SDS011;1680;48.106;11.708;2022-12-18T09:28:43;22.80;;;14.65;;
1831;SDS011;1680;48.106;11.708;2022-12-18T09:31:11;22.50;;;14.65;;
1831;SDS011;1680;48.106;11.708;2022-12-18T09:33:40;25.80;;;17.13;;
1831;SDS011;1680;48.106;11.708;2022-12-18T09:36:17;24.13;;;14.65;;
1831;SDS011;1680;48.106;11.708;2022-12-18T09:38:44;23.83;;;14.88;;
1831;SDS011;1680;48.106;11.708;2022-12-18T09:41:18;23.38;;;15.13;;
1831;SDS011;1680;48.106;11.708;2022-12-18T09:43:59;21.58;;;13.32;;
1831;SDS011;1680;48.106;11.708;2022-12-18T09:46:30;22.40;;;14.30;;
1831;SDS011;1680;48.106;11.708;2022-12-18T09:49:05;22.75;;;14.68;;
1831;SDS011;1680;48.106;11.708;2022-12-18T09:51:55;25.67;;;16.63;;
1831;SDS011;1680;48.106;11.708;2022-12-18T09:54:30;20.88;;;14.18;;
1831;SDS011;1680;48.106;11.708;2022-12-18T09:57:02;25.33;;;14.95;;
1831;SDS011;1680;48.106;11.708;2022-12-18T09:59:32;25.60;;;15.25;;
1831;SDS011;1680;48.106;11.708;2022-12-18T10:02:13;23.70;;;15.07;;
1831;SDS011;1680;48.106;11.708;2022-12-18T10:07:23;19.90;;;13.77;;
1831;SDS011;1680;48.106;11.708;2022-12-18T10:10:00;25.23;;;15.00;;
1831;SDS011;1680;48.106;11.708;2022-12-18T10:12:50;21.02;;;14.50;;
1831;SDS011;1680;48.106;11.708;2022-12-18T10:15:27;26.63;;;15.95;;
1831;SDS011;1680;48.106;11.708;2022-12-18T10:18:02;26.38;;;15.18;;
1831;SDS011;1680;48.106;11.708;2022-12-18T10:20:45;23.70;;;14.85;;
1831;SDS011;1680;48.106;11.708;2022-12-18T10:23:17;22.60;;;14.27;;
1831;SDS011;1680;48.106;11.708;2022-12-18T10:25:52;24.80;;;15.48;;
1831;SDS011;1680;48.106;11.708;2022-12-18T10:28:22;22.48;;;14.93;;
1831;SDS011;1680;48.106;11.708;2022-12-18T10:30:50;21.10;;;14.57;;
1831;SDS011;1680;48.106;11.708;2022-12-18T10:33:19;22.58;;;14.00;;
1831;SDS011;1680;48.106;11.708;2022-12-18T10:35:49;22.83;;;14.63;;
1831;SDS011;1680;48.106;11.708;2022-12-18T10:38:21;24.25;;;15.27;;
1831;SDS011;1680;48.106;11.708;2022-12-18T10:40:50;20.75;;;14.48;;
1831;SDS011;1680;48.106;11.708;2022-12-18T10:43:20;21.40;;;13.77;;
1831;SDS011;1680;48.106;11.708;2022-12-18T10:46:02;22.42;;;14.80;;
1831;SDS011;1680;48.106;11.708;2022-12-18T10:48:40;24.48;;;15.75;;
1831;SDS011;1680;48.106;11.708;2022-12-18T10:51:20;25.30;;;15.35;;
1831;SDS011;1680;48.106;11.708;2022-12-18T10:53:54;24.85;;;16.13;;
1831;SDS011;1680;48.106;11.708;2022-12-18T10:56:23;26.65;;;16.90;;
1831;SDS011;1680;48.106;11.708;2022-12-18T10:58:57;23.60;;;15.00;;
1831;SDS011;1680;48.106;11.708;2022-12-18T11:01:27;23.77;;;13.93;;
1831;SDS011;1680;48.106;11.708;2022-12-18T11:04:04;26.77;;;15.50;;
1831;SDS011;1680;48.106;11.708;2022-12-18T11:06:57;19.20;;;13.05;;
1831;SDS011;1680;48.106;11.708;2022-12-18T11:09:29;21.80;;;14.45;;
1831;SDS011;1680;48.106;11.708;2022-12-18T11:11:58;26.52;;;16.48;;
1831;SDS011;1680;48.106;11.708;2022-12-18T11:14:28;21.80;;;13.75;;
1831;SDS011;1680;48.106;11.708;2022-12-18T11:16:59;22.58;;;14.57;;
1831;SDS011;1680;48.106;11.708;2022-12-18T11:19:31;20.95;;;12.90;;
1831;SDS011;1680;48.106;11.708;2022-12-18T11:22:03;23.27;;;14.00;;
1831;SDS011;1680;48.106;11.708;2022-12-18T11:24:51;20.52;;;12.82;;
1831;SDS011;1680;48.106;11.708;2022-12-18T11:27:21;26.08;;;16.88;;
1831;SDS011;1680;48.106;11.708;2022-12-18T11:29:49;24.35;;;15.23;;
1831;SDS011;1680;48.106;11.708;2022-12-18T11:32:30;22.48;;;14.45;;
1831;SDS011;1680;48.106;11.708;2022-12-18T11:35:09;24.00;;;13.65;;
1831;SDS011;1680;48.106;11.708;2022-12-18T11:37:43;22.33;;;14.00;;
1831;SDS011;1680;48.106;11.708;2022-12-18T11:40:16;19.65;;;12.23;;
1831;SDS011;1680;48.106;11.708;2022-12-18T11:42:54;21.52;;;14.07;;
1831;SDS011;1680;48.106;11.708;2022-12-18T11:45:29;20.77;;;13.45;;
1831;SDS011;1680;48.106;11.708;2022-12-18T11:48:01;21.77;;;13.20;;
1831;SDS011;1680;48.106;11.708;2022-12-18T11:50:39;23.65;;;13.93;;
1831;SDS011;1680;48.106;11.708;2022-12-18T11:53:12;19.70;;;13.02;;
1831;SDS011;1680;48.106;11.708;2022-12-18T11:55:41;20.27;;;12.18;;
1831;SDS011;1680;48.106;11.708;2022-12-18T11:58:18;21.98;;;13.55;;
1831;SDS011;1680;48.106;11.708;2022-12-18T12:01:14;20.63;;;13.20;;
1831;SDS011;1680;48.106;11.708;2022-12-18T12:06:49;20.33;;;12.68;;
1831;SDS011;1680;48.106;11.708;2022-12-18T12:09:26;20.17;;;13.55;;
1831;SDS011;1680;48.106;11.708;2022-12-18T12:12:06;21.08;;;12.52;;
1831;SDS011;1680;48.106;11.708;2022-12-18T12:14:55;21.30;;;13.25;;
1831;SDS011;1680;48.106;11.708;2022-12-18T12:17:34;22.42;;;13.50;;
1831;SDS011;1680;48.106;11.708;2022-12-18T12:20:08;21.45;;;13.82;;
1831;SDS011;1680;48.106;11.708;2022-12-18T12:22:43;22.80;;;15.30;;
1831;SDS011;1680;48.106;11.708;2022-12-18T12:25:28;21.17;;;13.50;;
1831;SDS011;1680;48.106;11.708;2022-12-18T12:28:03;24.80;;;14.00;;
1831;SDS011;1680;48.106;11.708;2022-12-18T12:30:42;23.95;;;15.18;;
1831;SDS011;1680;48.106;11.708;2022-12-18T12:33:23;22.17;;;13.85;;
1831;SDS011;1680;48.106;11.708;2022-12-18T12:36:02;23.75;;;14.60;;
1831;SDS011;1680;48.106;11.708;2022-12-18T12:38:40;24.92;;;14.73;;
1831;SDS011;1680;48.106;11.708;2022-12-18T12:41:15;20.65;;;12.90;;
1831;SDS011;1680;48.106;11.708;2022-12-18T12:44:05;22.92;;;14.10;;
1831;SDS011;1680;48.106;11.708;2022-12-18T12:46:36;19.90;;;14.45;;
1831;SDS011;1680;48.106;11.708;2022-12-18T12:49:08;21.65;;;13.32;;
1831;SDS011;1680;48.106;11.708;2022-12-18T12:51:39;18.33;;;11.77;;
1831;SDS011;1680;48.106;11.708;2022-12-18T12:54:11;23.98;;;14.15;;
1831;SDS011;1680;48.106;11.708;2022-12-18T12:56:45;21.38;;;13.60;;
1831;SDS011;1680;48.106;11.708;2022-12-18T12:59:19;22.20;;;14.45;;
1831;SDS011;1680;48.106;11.708;2022-12-18T13:01:57;24.50;;;13.88;;
1831;SDS011;1680;48.106;11.708;2022-12-18T13:04:31;26.80;;;15.82;;
1831;SDS011;1680;48.106;11.708;2022-12-18T13:07:03;24.88;;;15.38;;
1831;SDS011;1680;48.106;11.708;2022-12-18T13:12:53;23.70;;;14.05;;
1831;SDS011;1680;48.106;11.708;2022-12-18T13:15:25;24.90;;;15.95;;
1831;SDS011;1680;48.106;11.708;2022-12-18T13:18:17;21.55;;;13.77;;
1831;SDS011;1680;48.106;11.708;2022-12-18T13:20:48;26.13;;;14.73;;
1831;SDS011;1680;48.106;11.708;2022-12-18T13:23:30;22.35;;;13.95;;
1831;SDS011;1680;48.106;11.708;2022-12-18T13:29:03;22.55;;;14.88;;
1831;SDS011;1680;48.106;11.708;2022-12-18T13:34:26;22.92;;;14.30;;
1831;SDS011;1680;48.106;11.708;2022-12-18T13:36:56;21.92;;;14.95;;
1831;SDS011;1680;48.106;11.708;2022-12-18T13:39:44;24.55;;;16.17;;
1831;SDS011;1680;48.106;11.708;2022-12-18T13:45:45;22.90;;;14.80;;
1831;SDS011;1680;48.106;11.708;2022-12-18T13:48:18;22.52;;;13.55;;
1831;SDS011;1680;48.106;11.708;2022-12-18T13:50:49;25.90;;;15.35;;
1831;SDS011;1680;48.106;11.708;2022-12-18T13:53:38;29.23;;;19.52;;
1831;SDS011;1680;48.106;11.708;2022-12-18T13:56:15;25.75;;;16.83;;
1831;SDS011;1680;48.106;11.708;2022-12-18T13:58:42;25.40;;;15.70;;
1831;SDS011;1680;48.106;11.708;2022-12-18T14:04:08;23.02;;;14.95;;
1831;SDS011;1680;48.106;11.708;2022-12-18T14:06:40;23.00;;;14.38;;
1831;SDS011;1680;48.106;11.708;2022-12-18T14:09:10;20.80;;;13.15;;
1831;SDS011;1680;48.106;11.708;2022-12-18T14:11:45;21.73;;;14.73;;
1831;SDS011;1680;48.106;11.708;2022-12-18T14:14:14;22.30;;;13.68;;
1831;SDS011;1680;48.106;11.708;2022-12-18T14:16:44;23.65;;;15.63;;
1831;SDS011;1680;48.106;11.708;2022-12-18T14:19:15;24.75;;;13.60;;
1831;SDS011;1680;48.106;11.708;2022-12-18T14:21:45;23.90;;;14.75;;
1831;SDS011;1680;48.106;11.708;2022-12-18T14:24:17;22.65;;;14.20;;
1831;SDS011;1680;48.106;11.708;2022-12-18T14:26:46;20.23;;;13.52;;
1831;SDS011;1680;48.106;11.708;2022-12-18T14:29:24;21.52;;;13.70;;
1831;SDS011;1680;48.106;11.708;2022-12-18T14:34:39;20.27;;;13.75;;
1831;SDS011;1680;48.106;11.708;2022-12-18T14:37:09;21.65;;;14.25;;
1831;SDS011;1680;48.106;11.708;2022-12-18T14:39:37;21.73;;;13.57;;
1831;SDS011;1680;48.106;11.708;2022-12-18T14:42:05;22.55;;;14.45;;
1831;SDS011;1680;48.106;11.708;2022-12-18T14:44:32;21.48;;;14.10;;
1831;SDS011;1680;48.106;11.708;2022-12-18T14:46:59;22.42;;;14.32;;
1831;SDS011;1680;48.106;11.708;2022-12-18T14:49:29;21.38;;;14.30;;
1831;SDS011;1680;48.106;11.708;2022-12-18T14:51:58;19.60;;;13.65;;
1831;SDS011;1680;48.106;11.708;2022-12-18T14:54:27;24.90;;;15.52;;
1831;SDS011;1680;48.106;11.708;2022-12-18T14:56:57;27.13;;;16.10;;
1831;SDS011;1680;48.106;11.708;2022-12-18T14:59:27;23.05;;;15.20;;
1831;SDS011;1680;48.106;11.708;2022-12-18T15:01:59;26.50;;;16.70;;
1831;SDS011;1680;48.106;11.708;2022-12-18T15:04:32;24.85;;;14.93;;
1831;SDS011;1680;48.106;11.708;2022-12-18T15:07:05;25.50;;;14.50;;
1831;SDS011;1680;48.106;11.708;2022-12-18T15:09:41;23.52;;;15.82;;
1831;SDS011;1680;48.106;11.708;2022-12-18T15:12:19;23.52;;;15.07;;
1831;SDS011;1680;48.106;11.708;2022-12-18T15:14:52;23.63;;;13.38;;
1831;SDS011;1680;48.106;11.708;2022-12-18T15:17:20;28.50;;;17.88;;
1831;SDS011;1680;48.106;11.708;2022-12-18T15:19:51;26.60;;;15.30;;
1831;SDS011;1680;48.106;11.708;2022-12-18T15:22:25;21.95;;;14.35;;
1831;SDS011;1680;48.106;11.708;2022-12-18T15:24:54;22.65;;;15.05;;